Time;durP1;ratioP1;P1;durP2;ratioP2;P2;SDS_P1;SDS_P2;PMS_P1;PMS_P2;Temp;Humidity;BMP_temperature;BMP_pressure;BME280_temperature;BME280_humidity;BME280_pressure;Samples;Min_cycle;Max_cycle;Signal;HPM_P1;HPM_P2
2022/04/25 00:01:15;;;;;;;;;;;;;;;10.52;58.93;100791.31;5152283;27;2662;-94
2022/04/25 00:03:42;;;;;;;;;;;;;;;10.51;58.78;100790.50;5149481;27;1607;-93
2022/04/25 00:06:08;;;;;;;;;;;;;;;10.49;58.89;100784.47;5138049;27;1159;-94
2022/04/25 00:08:35;;;;;;;;;;;;;;;10.46;58.96;100776.81;5156075;27;2433;-95
2022/04/25 00:11:01;;;;;;;;;;;;;;;10.45;58.93;100773.31;5157117;27;1879;-95
2022/04/25 00:13:27;;;;;;;;;;;;;;;10.44;58.90;100777.06;5156920;27;2101;-94
2022/04/25 00:15:54;;;;;;;;;;;;;;;10.41;58.94;100777.47;5144052;27;1878;-94
2022/04/25 00:18:20;;;;;;;;;;;;;;;10.41;58.97;100773.94;5141739;27;1845;-94
2022/04/25 00:20:47;;;;;;;;;;;;;;;10.38;58.93;100775.22;5153569;27;2754;-94
2022/04/25 00:23:13;;;;;;;;;;;;;;;10.38;58.80;100767.16;5141903;27;2066;-94
2022/04/25 00:25:40;;;;;;;;;;;;;;;10.36;58.76;100766.53;5157732;27;2597;-96
2022/04/25 00:28:07;;;;;;;;;;;;;;;10.36;58.68;100765.69;5146769;27;1787;-95
2022/04/25 00:30:33;;;;;;;;;;;;;;;10.33;58.90;100758.88;5152326;27;2418;-94
2022/04/25 00:33:01;;;;;;;;;;;;;;;10.32;58.68;100761.75;5158912;27;1913;-95
2022/04/25 00:35:27;;;;;;;;;;;;;;;10.28;58.74;100763.25;5148258;27;5205;-94
2022/04/25 00:37:53;;;;;;;;;;;;;;;10.27;58.89;100761.59;5155710;27;2526;-94
2022/04/25 00:40:20;;;;;;;;;;;;;;;10.25;58.77;100753.69;5150700;27;2379;-94
2022/04/25 00:42:46;;;;;;;;;;;;;;;10.22;58.71;100752.25;5155571;27;1538;-94
2022/04/25 00:45:13;;;;;;;;;;;;;;;10.19;58.90;100752.66;5149630;27;2258;-94
2022/04/25 00:47:39;;;;;;;;;;;;;;;10.19;58.73;100757.22;5136156;27;1524;-94
2022/04/25 00:50:06;;;;;;;;;;;;;;;10.17;58.88;100762.00;5149358;27;2420;-94
2022/04/25 00:52:32;;;;;;;;;;;;;;;10.13;58.68;100758.06;5150009;27;1960;-94
2022/04/25 00:54:59;;;;;;;;;;;;;;;10.12;58.89;100762.63;5126477;27;2136;-95
2022/04/25 00:57:25;;;;;;;;;;;;;;;10.09;58.84;100767.59;5128392;27;1531;-95
2022/04/25 00:59:52;;;;;;;;;;;;;;;10.08;58.80;100764.09;5125875;27;2787;-95
2022/04/25 01:02:18;;;;;;;;;;;;;;;10.07;58.66;100769.69;5125355;27;1452;-95
2022/04/25 01:04:44;;;;;;;;;;;;;;;10.05;58.65;100756.44;5115543;27;2403;-94
2022/04/25 01:07:11;;;;;;;;;;;;;;;10.05;58.73;100763.69;5121511;27;1230;-94
2022/04/25 01:09:38;;;;;;;;;;;;;;;10.02;58.79;100754.97;5118557;27;1945;-95
2022/04/25 01:12:04;;;;;;;;;;;;;;;10.02;58.83;100752.28;5119808;27;1995;-95
2022/04/25 01:14:30;;;;;;;;;;;;;;;9.99;58.82;100747.34;5107961;27;2394;-95
2022/04/25 01:16:57;;;;;;;;;;;;;;;9.98;58.84;100756.47;5110889;28;1802;-95
2022/04/25 01:19:23;;;;;;;;;;;;;;;9.97;58.70;100751.28;5110267;27;1723;-94
2022/04/25 01:21:50;;;;;;;;;;;;;;;9.96;58.64;100750.44;5108855;27;1508;-94
2022/04/25 01:27:16;;;;;;;;;;;;;;;9.91;58.75;100752.97;5125806;27;1766;-95
2022/04/25 01:29:43;;;;;;;;;;;;;;;9.89;58.61;100749.66;5121948;27;2554;-96
2022/04/25 01:32:09;;;;;;;;;;;;;;;9.89;58.56;100752.34;5112128;28;1918;-94
2022/04/25 01:34:37;;;;;;;;;;;;;;;9.88;58.54;100745.31;5120203;27;2583;-95
2022/04/25 01:37:05;;;;;;;;;;;;;;;9.87;58.61;100748.22;5120361;28;1719;-95
2022/04/25 01:39:31;;;;;;;;;;;;;;;9.85;58.43;100748.41;5124341;27;1694;-95
2022/04/25 01:41:58;;;;;;;;;;;;;;;9.83;58.60;100736.22;5127217;27;1429;-95
2022/04/25 01:44:24;;;;;;;;;;;;;;;9.83;58.60;100738.91;5120252;27;2011;-95
2022/04/25 01:46:50;;;;;;;;;;;;;;;9.81;58.49;100731.03;5114126;28;1906;-95
2022/04/25 01:49:17;;;;;;;;;;;;;;;9.80;58.45;100732.09;5137231;27;1603;-95
2022/04/25 01:51:44;;;;;;;;;;;;;;;9.78;58.53;100732.28;5121759;27;1780;-95
2022/04/25 01:54:10;;;;;;;;;;;;;;;9.77;58.28;100727.13;5131577;27;1910;-95
2022/04/25 01:56:37;;;;;;;;;;;;;;;9.76;58.41;100730.84;5142771;27;2987;-95
2022/04/25 01:59:03;;;;;;;;;;;;;;;9.75;58.49;100723.81;5142468;27;2395;-95
2022/04/25 02:01:30;;;;;;;;;;;;;;;9.74;58.31;100720.31;5140943;27;1787;-96
2022/04/25 02:03:56;;;;;;;;;;;;;;;9.73;58.28;100715.13;5142647;27;2239;-95
2022/04/25 02:06:23;;;;;;;;;;;;;;;9.72;58.37;100713.47;5143621;27;1840;-96
2022/04/25 02:08:49;;;;;;;;;;;;;;;9.71;58.22;100707.28;5135298;27;2459;-95
2022/04/25 02:11:22;;;;;;;;;;;;;;;9.71;58.26;100711.84;5122859;28;1843;-96
2022/04/25 02:13:48;;;;;;;;;;;;;;;9.69;58.26;100713.91;5140039;27;1921;-95
2022/04/25 02:16:15;;;;;;;;;;;;;;;9.67;58.09;100703.34;5140729;27;1804;-95
2022/04/25 02:18:41;;;;;;;;;;;;;;;9.66;58.07;100704.38;5145099;27;2375;-95
2022/04/25 02:21:08;;;;;;;;;;;;;;;9.66;58.13;100692.81;5140836;27;1705;-95
2022/04/25 02:23:34;;;;;;;;;;;;;;;9.64;58.11;100702.94;5124745;27;5630;-95
2022/04/25 02:26:01;;;;;;;;;;;;;;;9.62;58.23;100695.09;5139512;27;1931;-94
2022/04/25 02:28:27;;;;;;;;;;;;;;;9.60;58.21;100697.16;5141113;27;2150;-95
2022/04/25 02:30:54;;;;;;;;;;;;;;;9.59;57.99;100695.50;5132473;27;2247;-95
2022/04/25 02:33:20;;;;;;;;;;;;;;;9.58;58.18;100696.53;5122556;27;1957;-96
2022/04/25 02:35:47;;;;;;;;;;;;;;;9.57;58.05;100699.44;5124540;27;2148;-95
2022/04/25 02:38:13;;;;;;;;;;;;;;;9.56;57.95;100704.00;5139989;27;2128;-95
2022/04/25 02:40:40;;;;;;;;;;;;;;;9.53;58.04;100699.88;5139130;27;4875;-95
2022/04/25 02:43:06;;;;;;;;;;;;;;;9.53;57.85;100701.72;5142095;27;2721;-95
2022/04/25 02:45:35;;;;;;;;;;;;;;;9.50;58.01;100694.06;5137726;27;2326;-95
2022/04/25 02:48:02;;;;;;;;;;;;;;;9.47;58.01;100692.63;5143843;27;1484;-95
2022/04/25 02:50:28;;;;;;;;;;;;;;;9.46;57.90;100693.66;5137138;27;1871;-95
2022/04/25 02:52:55;;;;;;;;;;;;;;;9.45;58.12;100689.31;5143187;27;1976;-95
2022/04/25 02:55:21;;;;;;;;;;;;;;;9.44;57.98;100692.19;5140987;27;2353;-95
2022/04/25 02:57:48;;;;;;;;;;;;;;;9.43;57.80;100691.38;5141532;27;1562;-95
2022/04/25 03:00:14;;;;;;;;;;;;;;;9.40;57.85;100685.59;5137385;27;2432;-95
2022/04/25 03:02:41;;;;;;;;;;;;;;;9.39;58.07;100682.09;5143724;27;1733;-95
2022/04/25 03:05:07;;;;;;;;;;;;;;;9.37;57.89;100686.84;5132511;27;2241;-95
2022/04/25 03:07:34;;;;;;;;;;;;;;;9.38;57.79;100683.09;5143589;27;1463;-95
2022/04/25 03:10:00;;;;;;;;;;;;;;;9.35;57.85;100686.22;5139869;27;1749;-95
2022/04/25 03:12:27;;;;;;;;;;;;;;;9.35;57.92;100677.31;5144655;27;1890;-95
2022/04/25 03:14:53;;;;;;;;;;;;;;;9.30;57.87;100677.97;5142231;27;1657;-95
2022/04/25 03:17:20;;;;;;;;;;;;;;;9.30;58.02;100672.59;5135306;27;1602;-95
2022/04/25 03:19:46;;;;;;;;;;;;;;;9.29;57.86;100676.28;5132281;27;1626;-96
2022/04/25 03:22:13;;;;;;;;;;;;;;;9.27;57.79;100671.16;5144884;27;1317;-96
2022/04/25 03:24:39;;;;;;;;;;;;;;;9.25;57.85;100670.50;5138044;27;1680;-95
2022/04/25 03:27:06;;;;;;;;;;;;;;;9.24;57.80;100671.56;5146469;27;1237;-95
2022/04/25 03:29:32;;;;;;;;;;;;;;;9.23;57.89;100671.75;5143715;27;1737;-95
2022/04/25 03:31:59;;;;;;;;;;;;;;;9.21;57.86;100671.16;5142473;27;1863;-95
2022/04/25 03:34:25;;;;;;;;;;;;;;;9.20;57.69;100675.69;5139027;27;1913;-96
2022/04/25 03:36:56;;;;;;;;;;;;;;;9.17;57.61;100668.03;5145790;27;1447;-95
2022/04/25 03:39:22;;;;;;;;;;;;;;;9.16;57.74;100666.41;5143399;27;1574;-96
2022/04/25 03:41:49;;;;;;;;;;;;;;;9.16;57.62;100661.03;5141477;27;1291;-96
2022/04/25 03:44:15;;;;;;;;;;;;;;;9.14;57.85;100660.38;5147645;27;1704;-96
2022/04/25 03:46:42;;;;;;;;;;;;;;;9.12;57.79;100658.94;5144177;27;2162;-96
2022/04/25 03:49:09;;;;;;;;;;;;;;;9.09;57.69;100654.84;5143951;27;1479;-96
2022/04/25 03:51:35;;;;;;;;;;;;;;;9.08;57.65;100653.97;5143689;28;1244;-95
2022/04/25 03:54:02;;;;;;;;;;;;;;;9.07;57.81;100654.22;5138709;28;2360;-95
2022/04/25 03:59:13;;;;;;;;;;;;;;;9.03;57.85;100651.13;5135660;28;2228;-95
2022/04/25 04:01:39;;;;;;;;;;;;;;;9.02;57.56;100649.44;5141793;28;1765;-95
2022/04/25 04:04:06;;;;;;;;;;;;;;;9.01;57.65;100652.34;5133418;28;1500;-96
2022/04/25 04:06:32;;;;;;;;;;;;;;;9.00;57.62;100648.84;5140733;27;2538;-95
2022/04/25 04:08:59;;;;;;;;;;;;;;;8.97;57.58;100643.88;5144297;28;1662;-96
2022/04/25 04:11:46;;;;;;;;;;;;;;;8.97;57.77;100648.41;5143720;28;1650;-95
2022/04/25 04:14:12;;;;;;;;;;;;;;;8.96;57.69;100650.25;5126118;27;2044;-95
2022/04/25 04:16:39;;;;;;;;;;;;;;;8.94;57.51;100641.63;5140155;28;1769;-94
2022/04/25 04:19:05;;;;;;;;;;;;;;;8.92;57.47;100642.84;5138213;28;2085;-95
2022/04/25 04:21:32;;;;;;;;;;;;;;;8.91;57.70;100639.31;5136642;28;1370;-95
2022/04/25 04:23:59;;;;;;;;;;;;;;;8.91;57.63;100643.84;5139564;27;1598;-95
2022/04/25 04:26:25;;;;;;;;;;;;;;;8.86;57.82;100639.94;5125340;28;1641;-96
2022/04/25 04:28:53;;;;;;;;;;;;;;;8.86;57.45;100645.31;5126678;28;2119;-95
2022/04/25 04:31:19;;;;;;;;;;;;;;;8.84;57.44;100639.31;5132597;28;1991;-95
2022/04/25 04:33:46;;;;;;;;;;;;;;;8.83;57.61;100644.91;5125315;28;1984;-95
2022/04/25 04:36:19;;;;;;;;;;;;;;;8.81;57.63;100633.53;5141465;27;5309;-95
2022/04/25 04:38:45;;;;;;;;;;;;;;;8.80;57.59;100632.72;5137317;27;2056;-95
2022/04/25 04:41:11;;;;;;;;;;;;;;;8.79;57.28;100636.41;5135064;27;1419;-95
2022/04/25 04:43:38;;;;;;;;;;;;;;;8.78;57.59;100628.56;5141281;27;1561;-95
2022/04/25 04:46:04;;;;;;;;;;;;;;;8.77;57.54;100632.31;5139085;27;1928;-96
2022/04/25 04:48:31;;;;;;;;;;;;;;;8.74;57.49;100627.34;5139825;27;1927;-95
2022/04/25 04:50:58;;;;;;;;;;;;;;;8.73;57.63;100629.19;5140825;27;1760;-96
2022/04/25 04:53:24;;;;;;;;;;;;;;;8.72;57.40;100624.03;5130731;27;2435;-96
2022/04/25 04:55:51;;;;;;;;;;;;;;;8.70;57.46;100620.72;5129218;27;5653;-96
2022/04/25 04:58:18;;;;;;;;;;;;;;;8.70;57.53;100631.47;5126235;27;2264;-94
2022/04/25 05:00:44;;;;;;;;;;;;;;;8.67;57.53;100627.31;5118954;27;1679;-95
2022/04/25 05:03:13;;;;;;;;;;;;;;;8.67;57.65;100639.94;5120163;27;2539;-95
2022/04/25 05:05:40;;;;;;;;;;;;;;;8.64;57.30;100633.91;5119150;27;1805;-95
2022/04/25 05:08:06;;;;;;;;;;;;;;;8.65;57.29;100634.78;5125203;27;1705;-95
2022/04/25 05:10:33;;;;;;;;;;;;;;;8.62;57.52;100627.94;5114388;27;2322;-95
2022/04/25 05:12:59;;;;;;;;;;;;;;;8.62;57.67;100633.31;5124260;27;1902;-94
2022/04/25 05:15:25;;;;;;;;;;;;;;;8.60;57.36;100632.69;5113041;27;4544;-94
2022/04/25 05:17:53;;;;;;;;;;;;;;;8.60;57.32;100640.75;5123412;27;1900;-93
2022/04/25 05:20:19;;;;;;;;;;;;;;;8.57;57.27;100640.34;5113748;27;2125;-95
2022/04/25 05:22:47;;;;;;;;;;;;;;;8.58;57.37;100640.13;5126518;27;1507;-96
2022/04/25 05:25:14;;;;;;;;;;;;;;;8.56;57.33;100633.28;5122999;27;2783;-94
2022/04/25 05:27:40;;;;;;;;;;;;;;;8.53;57.45;100631.88;5107158;27;1330;-95
2022/04/25 05:30:07;;;;;;;;;;;;;;;8.54;57.57;100632.69;5124587;27;5328;-93
2022/04/25 05:32:34;;;;;;;;;;;;;;;8.52;57.38;100634.75;5108598;28;5236;-94
2022/04/25 05:35:00;;;;;;;;;;;;;;;8.51;57.33;100638.47;5115009;27;1995;-95
2022/04/25 05:37:26;;;;;;;;;;;;;;;8.50;57.39;100634.97;5120944;27;1275;-95
2022/04/25 05:39:53;;;;;;;;;;;;;;;8.49;57.20;100633.28;5118334;27;5114;-95
2022/04/25 05:42:19;;;;;;;;;;;;;;;8.49;57.04;100627.09;5124638;27;1372;-94
2022/04/25 05:44:46;;;;;;;;;;;;;;;8.46;57.40;100624.81;5113890;27;5429;-95
2022/04/25 05:47:12;;;;;;;;;;;;;;;8.47;57.31;100626.47;5106634;28;2674;-95
2022/04/25 05:52:23;;;;;;;;;;;;;;;8.46;57.27;100630.19;5117386;27;1939;-93
2022/04/25 05:54:49;;;;;;;;;;;;;;;8.43;57.29;100626.06;5122662;27;2091;-94
2022/04/25 05:57:16;;;;;;;;;;;;;;;8.41;57.17;100631.63;5127129;27;1728;-94
2022/04/25 05:59:42;;;;;;;;;;;;;;;8.40;57.22;100627.28;5131473;27;5363;-95
2022/04/25 06:02:09;;;;;;;;;;;;;;;8.39;57.42;100627.50;5129187;27;1864;-94
2022/04/25 06:04:35;;;;;;;;;;;;;;;8.37;57.38;100622.28;5126229;27;1926;-94
2022/04/25 06:07:04;;;;;;;;;;;;;;;8.39;57.08;100622.13;5136200;27;1865;-95
2022/04/25 06:09:30;;;;;;;;;;;;;;;8.37;57.32;100624.16;5131519;27;5356;-95
2022/04/25 06:11:56;;;;;;;;;;;;;;;8.36;57.19;100634.06;5136579;27;1501;-95
2022/04/25 06:14:23;;;;;;;;;;;;;;;8.36;57.19;100628.69;5121472;27;5626;-94
2022/04/25 06:16:49;;;;;;;;;;;;;;;8.34;57.20;100628.06;5141254;27;1930;-95
2022/04/25 06:19:16;;;;;;;;;;;;;;;8.35;56.98;100629.75;5129206;27;5694;-95
2022/04/25 06:21:42;;;;;;;;;;;;;;;8.34;57.05;100627.25;5136869;27;1876;-95
2022/04/25 06:24:08;;;;;;;;;;;;;;;8.32;56.98;100631.97;5133215;27;2190;-93
2022/04/25 06:26:36;;;;;;;;;;;;;;;8.31;57.19;100628.47;5126179;27;1959;-94
2022/04/25 06:29:03;;;;;;;;;;;;;;;8.31;57.02;100631.16;5119526;27;5487;-94
2022/04/25 06:31:30;;;;;;;;;;;;;;;8.31;56.93;100630.34;5138929;27;2197;-94
2022/04/25 06:33:57;;;;;;;;;;;;;;;8.31;57.09;100630.34;5130586;27;2215;-93
2022/04/25 06:36:24;;;;;;;;;;;;;;;8.30;57.21;100632.19;5131296;27;1876;-96
2022/04/25 06:38:51;;;;;;;;;;;;;;;8.28;57.02;100628.88;5136902;27;5357;-95
2022/04/25 06:41:17;;;;;;;;;;;;;;;8.28;57.07;100625.38;5134774;27;2480;-95
2022/04/25 06:43:44;;;;;;;;;;;;;;;8.27;57.13;100624.56;5123944;27;2593;-92
2022/04/25 06:46:11;;;;;;;;;;;;;;;8.27;57.08;100624.56;5144551;27;2738;-96
2022/04/25 06:48:39;;;;;;;;;;;;;;;8.28;56.85;100625.38;5143913;27;2119;-94
2022/04/25 06:51:06;;;;;;;;;;;;;;;8.28;56.91;100628.06;5142076;27;1946;-95
2022/04/25 06:53:33;;;;;;;;;;;;;;;8.25;56.86;100618.56;5125999;27;5600;-94
2022/04/25 06:56:00;;;;;;;;;;;;;;;8.25;57.19;100626.59;5136830;27;3232;-95
2022/04/25 06:58:27;;;;;;;;;;;;;;;8.24;57.20;100611.53;5120268;27;2629;-95
2022/04/25 07:00:53;;;;;;;;;;;;;;;8.25;57.01;100609.69;5132738;27;1817;-95
2022/04/25 07:03:20;;;;;;;;;;;;;;;8.23;56.79;100604.50;5136074;27;2437;-95
2022/04/25 07:05:48;;;;;;;;;;;;;;;8.23;56.87;100607.19;5133466;27;1847;-96
2022/04/25 07:08:14;;;;;;;;;;;;;;;8.23;56.88;100604.50;5121572;27;3028;-95
2022/04/25 07:10:41;;;;;;;;;;;;;;;8.22;57.12;100602.03;5129889;27;2041;-94
2022/04/25 07:13:07;;;;;;;;;;;;;;;8.22;56.97;100600.19;5125366;27;2031;-95
2022/04/25 07:15:34;;;;;;;;;;;;;;;8.22;56.95;100597.50;5129456;27;1913;-95
2022/04/25 07:18:00;;;;;;;;;;;;;;;8.22;57.09;100596.69;5134030;27;1937;-95
2022/04/25 07:20:28;;;;;;;;;;;;;;;8.23;56.64;100590.28;5135153;27;5462;-95
2022/04/25 07:31:06;;;;;;;;;;;;;;;8.22;56.94;100585.94;5136860;27;1706;-95
2022/04/25 07:33:35;;;;;;;;;;;;;;;8.22;56.98;100583.25;5135499;27;2187;-95
2022/04/25 07:36:01;;;;;;;;;;;;;;;8.25;56.78;100590.91;5130459;27;1824;-95
2022/04/25 07:38:28;;;;;;;;;;;;;;;8.23;56.60;100582.22;5130978;27;2591;-95
2022/04/25 07:40:54;;;;;;;;;;;;;;;8.22;56.95;100580.56;5123491;27;2076;-96
2022/04/25 07:43:21;;;;;;;;;;;;;;;8.21;56.94;100579.75;5127594;27;2119;-96
2022/04/25 07:45:47;;;;;;;;;;;;;;;8.22;56.91;100581.41;5134005;27;1812;-95
2022/04/25 07:48:14;;;;;;;;;;;;;;;8.23;56.83;100584.91;5136387;27;2824;-95
2022/04/25 07:50:41;;;;;;;;;;;;;;;8.24;57.00;100578.53;5143164;27;1645;-95
2022/04/25 07:53:07;;;;;;;;;;;;;;;8.24;56.77;100570.47;5133015;28;1696;-95
2022/04/25 07:55:34;;;;;;;;;;;;;;;8.22;56.77;100573.34;5134520;28;1979;-95
2022/04/25 07:58:00;;;;;;;;;;;;;;;8.23;56.56;100569.63;5125207;28;1439;-95
2022/04/25 08:00:27;;;;;;;;;;;;;;;8.23;56.87;100569.63;5129156;28;1697;-96
2022/04/25 08:02:56;;;;;;;;;;;;;;;8.25;56.69;100564.88;5128097;28;1468;-96
2022/04/25 08:05:22;;;;;;;;;;;;;;;8.25;56.91;100566.75;5127260;27;5299;-95
2022/04/25 08:07:49;;;;;;;;;;;;;;;8.26;56.82;100561.16;5128928;28;1358;-95
2022/04/25 08:10:16;;;;;;;;;;;;;;;8.27;56.81;100562.84;5126153;28;1997;-95
2022/04/25 08:18:13;;;;;;;;;;;;;;;8.27;56.78;100552.09;5135412;27;2444;-96
2022/04/25 08:20:39;;;;;;;;;;;;;;;8.28;56.54;100545.69;5127722;27;5159;-95
2022/04/25 08:23:05;;;;;;;;;;;;;;;8.29;56.58;100546.53;5130109;27;2646;-95
2022/04/25 08:25:32;;;;;;;;;;;;;;;8.30;56.81;100550.88;5134074;27;1984;-95
2022/04/25 08:30:40;;;;;;;;;;;;;;;8.31;56.74;100547.97;5135696;27;1843;-94
2022/04/25 08:33:08;;;;;;;;;;;;;;;8.31;56.70;100547.97;5128391;27;1711;-95
2022/04/25 08:35:34;;;;;;;;;;;;;;;8.33;56.56;100551.28;5135471;27;5424;-95
2022/04/25 08:38:01;;;;;;;;;;;;;;;8.34;56.56;100552.94;5135352;27;1474;-95
2022/04/25 08:40:28;;;;;;;;;;;;;;;8.34;56.87;100544.06;5144383;27;1912;-96
2022/04/25 08:42:54;;;;;;;;;;;;;;;8.35;56.64;100551.06;5145962;27;1660;-96
2022/04/25 08:45:21;;;;;;;;;;;;;;;8.35;56.64;100543.88;5129338;27;1780;-95
2022/04/25 08:47:48;;;;;;;;;;;;;;;8.36;56.86;100544.69;5135804;27;1375;-96
2022/04/25 08:50:14;;;;;;;;;;;;;;;8.37;56.90;100541.78;5135665;27;2400;-95
2022/04/25 08:52:41;;;;;;;;;;;;;;;8.39;56.55;100542.44;5131451;27;1681;-96
2022/04/25 08:55:08;;;;;;;;;;;;;;;8.40;56.81;100549.44;5138765;27;4698;-96
2022/04/25 08:57:37;;;;;;;;;;;;;;;8.42;56.83;100541.22;5144702;27;1670;-95
2022/04/25 09:00:04;;;;;;;;;;;;;;;8.41;56.86;100545.75;5135057;27;2698;-95
2022/04/25 09:02:30;;;;;;;;;;;;;;;8.41;56.81;100543.06;5143601;27;1891;-96
2022/04/25 09:04:57;;;;;;;;;;;;;;;8.44;56.86;100549.03;5148749;27;2427;-95
2022/04/25 09:07:24;;;;;;;;;;;;;;;8.45;56.96;100539.97;5142601;27;2491;-96
2022/04/25 09:09:50;;;;;;;;;;;;;;;8.47;56.98;100545.94;5126286;27;1689;-96
2022/04/25 09:12:17;;;;;;;;;;;;;;;8.48;56.98;100537.69;5137966;27;1866;-95
2022/04/25 09:14:44;;;;;;;;;;;;;;;8.50;56.53;100537.47;5129266;27;1970;-95
2022/04/25 09:17:10;;;;;;;;;;;;;;;8.49;56.84;100536.66;5139581;27;1220;-94
2022/04/25 09:19:37;;;;;;;;;;;;;;;8.51;56.65;100539.16;5126958;27;2072;-95
2022/04/25 09:25:08;;;;;;;;;;;;;;;8.54;56.96;100526.13;5358018;22;3443;-96
2022/04/25 09:51:53;;;;;;;;;;;;;;;8.64;57.07;100510.41;5562762;22;3629;-96
2022/04/25 09:54:19;;;;;;;;;;;;;;;8.65;56.71;100508.59;5017984;28;2239;-96
2022/04/25 09:56:46;;;;;;;;;;;;;;;8.64;56.80;100502.38;5014654;28;1804;-96
2022/04/25 09:59:13;;;;;;;;;;;;;;;8.66;57.16;100506.72;5020702;28;1856;-96
2022/04/25 10:01:39;;;;;;;;;;;;;;;8.65;57.01;100516.63;5017225;28;1585;-96
2022/04/25 10:04:05;;;;;;;;;;;;;;;8.68;57.40;100507.31;5013212;28;2575;-96
2022/04/25 10:06:32;;;;;;;;;;;;;;;8.69;57.20;100503.63;5014892;28;1876;-96
2022/04/25 10:08:58;;;;;;;;;;;;;;;8.72;56.96;100511.25;5010248;28;1940;-96
2022/04/25 10:11:25;;;;;;;;;;;;;;;8.73;56.95;100510.22;5000409;28;1768;-96
2022/04/25 10:13:51;;;;;;;;;;;;;;;8.74;57.12;100510.03;5035177;28;2255;-96
2022/04/25 10:16:18;;;;;;;;;;;;;;;8.75;57.28;100500.09;5019142;28;1914;-96
2022/04/25 10:18:45;;;;;;;;;;;;;;;8.77;56.95;100496.16;5017927;28;2465;-96
2022/04/25 10:21:11;;;;;;;;;;;;;;;8.76;57.23;100497.19;5021722;28;1448;-96
2022/04/25 10:23:38;;;;;;;;;;;;;;;8.78;57.03;100497.81;5016638;28;2472;-96
2022/04/25 10:26:04;;;;;;;;;;;;;;;8.78;57.28;100491.63;5019062;28;1717;-96
2022/04/25 10:28:31;;;;;;;;;;;;;;;8.80;57.41;100487.69;5021058;28;1548;-96
2022/04/25 10:30:57;;;;;;;;;;;;;;;8.81;57.20;100492.03;5022133;28;1569;-96
2022/04/25 10:33:24;;;;;;;;;;;;;;;8.82;57.42;100490.16;5018666;28;2570;-96
2022/04/25 10:35:50;;;;;;;;;;;;;;;8.83;57.33;100492.66;5003374;28;1960;-96
2022/04/25 10:38:47;;;;;;;;;;;;;;;8.84;57.34;100485.41;4999594;28;1822;-96
2022/04/25 10:46:31;;;;;;;;;;;;;;;8.87;57.09;100475.06;5019767;28;1793;-96
2022/04/25 10:48:59;;;;;;;;;;;;;;;8.91;57.17;100477.31;4995041;28;2555;-96
2022/04/25 10:51:27;;;;;;;;;;;;;;;8.92;57.40;100479.00;4996322;28;2109;-96
2022/04/25 10:53:56;;;;;;;;;;;;;;;8.92;57.49;100477.13;4988040;28;2830;-96
2022/04/25 10:56:23;;;;;;;;;;;;;;;8.94;57.43;100477.75;4994803;28;1988;-96
2022/04/25 10:58:49;;;;;;;;;;;;;;;8.96;57.30;100467.59;4992823;28;2348;-96
2022/04/25 11:01:16;;;;;;;;;;;;;;;8.97;57.39;100465.75;5004757;28;1546;-96
2022/04/25 11:03:42;;;;;;;;;;;;;;;8.98;57.31;100465.53;5003831;28;1761;-96
2022/04/25 11:06:09;;;;;;;;;;;;;;;9.00;57.68;100455.41;5007300;28;1299;-96
2022/04/25 11:08:35;;;;;;;;;;;;;;;9.02;57.21;100464.06;5004353;28;1604;-96
2022/04/25 11:11:02;;;;;;;;;;;;;;;9.02;57.45;100471.31;4984675;28;1222;-96
2022/04/25 11:13:28;;;;;;;;;;;;;;;9.04;57.67;100464.69;4997160;28;2484;-96
2022/04/25 11:15:56;;;;;;;;;;;;;;;9.04;57.61;100458.50;5006637;28;1995;-96
2022/04/25 11:18:23;;;;;;;;;;;;;;;9.06;57.84;100464.50;5003112;28;1742;-96
2022/04/25 11:20:49;;;;;;;;;;;;;;;9.06;57.96;100453.75;5006247;28;2040;-96
2022/04/25 11:23:16;;;;;;;;;;;;;;;9.08;57.71;100457.84;5002732;28;2171;-96
2022/04/25 11:25:43;;;;;;;;;;;;;;;9.12;58.08;100454.75;5008626;28;1953;-96
2022/04/25 11:28:10;;;;;;;;;;;;;;;9.12;57.91;100446.69;5000489;28;1348;-96
2022/04/25 11:30:36;;;;;;;;;;;;;;;9.14;57.85;100444.59;4998756;28;1554;-96
2022/04/25 11:33:03;;;;;;;;;;;;;;;9.16;58.06;100443.38;4992520;28;1616;-96
2022/04/25 11:35:29;;;;;;;;;;;;;;;9.18;58.09;100441.31;4999212;28;1914;-96
2022/04/25 11:37:56;;;;;;;;;;;;;;;9.20;58.18;100444.56;5004822;28;1390;-96
2022/04/25 11:40:22;;;;;;;;;;;;;;;9.21;58.07;100446.25;5017148;28;1413;-96
2022/04/25 11:42:49;;;;;;;;;;;;;;;9.22;58.11;100439.81;5019593;28;1788;-96
2022/04/25 11:45:16;;;;;;;;;;;;;;;9.23;58.30;100433.41;5003080;28;1942;-96
2022/04/25 11:47:42;;;;;;;;;;;;;;;9.25;58.17;100425.97;5022145;28;1733;-96
2022/04/25 11:50:11;;;;;;;;;;;;;;;9.26;58.20;100426.78;5007096;28;2936;-96
2022/04/25 11:52:37;;;;;;;;;;;;;;;9.28;58.24;100433.59;5011053;28;1363;-96
2022/04/25 11:55:04;;;;;;;;;;;;;;;9.30;58.29;100428.00;5011556;28;2336;-96
2022/04/25 11:57:31;;;;;;;;;;;;;;;9.31;58.24;100429.66;5022538;28;1209;-96
2022/04/25 11:59:57;;;;;;;;;;;;;;;9.33;58.33;100438.34;5020616;28;1535;-96
2022/04/25 12:02:24;;;;;;;;;;;;;;;9.36;58.46;100437.09;5016179;28;1973;-96
2022/04/25 12:04:52;;;;;;;;;;;;;;;9.37;58.55;100433.34;5007225;28;1813;-96
2022/04/25 12:07:19;;;;;;;;;;;;;;;9.39;58.64;100432.09;5011364;28;1238;-96
2022/04/25 12:17:59;;;;;;;;;;;;;;;9.48;58.74;100428.13;5009559;28;1237;-96
2022/04/25 12:20:26;;;;;;;;;;;;;;;9.51;58.64;100427.69;5023241;28;2016;-96
2022/04/25 12:22:53;;;;;;;;;;;;;;;9.52;58.67;100429.31;5023865;28;1297;-96
2022/04/25 12:25:20;;;;;;;;;;;;;;;9.53;58.61;100431.00;5037197;28;1260;-96
2022/04/25 12:27:47;;;;;;;;;;;;;;;9.56;58.61;100421.69;5032668;28;1435;-96
2022/04/25 12:30:15;;;;;;;;;;;;;;;9.58;58.88;100432.19;5032603;28;1894;-96
2022/04/25 12:32:42;;;;;;;;;;;;;;;9.61;58.77;100426.38;5023073;28;1241;-96
2022/04/25 12:35:09;;;;;;;;;;;;;;;9.64;58.88;100420.56;5024454;28;1910;-96
2022/04/25 12:37:36;;;;;;;;;;;;;;;9.66;58.86;100423.88;5024595;28;1314;-96
2022/04/25 12:40:02;;;;;;;;;;;;;;;9.67;59.01;100420.97;5025742;28;1155;-96
2022/04/25 12:42:29;;;;;;;;;;;;;;;9.69;58.99;100420.75;5025644;28;1122;-96
2022/04/25 12:44:58;;;;;;;;;;;;;;;9.71;58.79;100416.81;5025400;28;1476;-96
2022/04/25 12:47:27;;;;;;;;;;;;;;;9.74;59.07;100418.25;5026939;28;1310;-96
2022/04/25 12:49:54;;;;;;;;;;;;;;;9.75;59.16;100409.94;5027301;28;1549;-96
2022/04/25 12:52:21;;;;;;;;;;;;;;;9.78;59.17;100414.06;5027136;28;1428;-96
2022/04/25 12:54:49;;;;;;;;;;;;;;;9.81;59.18;100407.44;5027883;28;1966;-96
2022/04/25 12:57:17;;;;;;;;;;;;;;;9.81;59.04;100410.94;5028980;28;1289;-96
2022/04/25 12:59:44;;;;;;;;;;;;;;;9.82;59.00;100399.13;5030350;28;1173;-96
2022/04/25 13:02:15;;;;;;;;;;;;;;;9.86;59.16;100396.84;5032823;28;1355;-96
2022/04/25 13:04:44;;;;;;;;;;;;;;;9.89;59.17;100399.09;5034191;28;1416;-96
2022/04/25 13:07:18;;;;;;;;;;;;;;;9.92;59.07;100399.47;5034406;28;846;-96
2022/04/25 13:09:46;;;;;;;;;;;;;;;9.94;59.18;100397.41;5033626;28;1001;-96
2022/04/25 13:12:13;;;;;;;;;;;;;;;9.96;59.35;100386.41;5032936;28;1197;-96
2022/04/25 13:14:41;;;;;;;;;;;;;;;9.99;59.25;100391.34;5034144;28;1213;-96
2022/04/25 13:17:12;;;;;;;;;;;;;;;10.01;59.33;100398.16;5034958;28;1953;-96
2022/04/25 13:19:49;;;;;;;;;;;;;;;10.03;59.31;100389.88;5034023;28;1592;-96
2022/04/25 13:22:23;;;;;;;;;;;;;;;10.05;59.44;100382.41;5035686;28;889;-96
2022/04/25 13:24:59;;;;;;;;;;;;;;;10.06;59.45;100389.44;5016357;28;1320;-96
2022/04/25 13:27:27;;;;;;;;;;;;;;;10.08;59.34;100379.25;5036274;28;1037;-96
2022/04/25 13:29:59;;;;;;;;;;;;;;;10.11;59.38;100384.22;5036543;28;1209;-96
2022/04/25 13:32:43;;;;;;;;;;;;;;;10.14;59.49;100380.25;5035884;28;1151;-96
2022/04/25 13:35:11;;;;;;;;;;;;;;;10.18;59.47;100374.22;5035211;28;1966;-96
2022/04/25 13:37:39;;;;;;;;;;;;;;;10.20;59.47;100377.50;5035728;28;1273;-96
2022/04/25 13:40:07;;;;;;;;;;;;;;;10.24;59.63;100377.91;5034459;28;1299;-96
2022/04/25 13:42:52;;;;;;;;;;;;;;;10.27;59.71;100372.09;5036032;28;1048;-96
2022/04/25 13:45:23;;;;;;;;;;;;;;;10.28;59.74;100370.22;5034050;28;1334;-96
2022/04/25 13:47:51;;;;;;;;;;;;;;;10.32;59.67;100358.78;5034563;28;1570;-96
2022/04/25 13:50:19;;;;;;;;;;;;;;;10.35;59.73;100366.44;5034062;28;1132;-96
2022/04/25 13:52:50;;;;;;;;;;;;;;;10.37;59.72;100363.50;5035188;28;1429;-96
2022/04/25 13:55:19;;;;;;;;;;;;;;;10.40;59.67;100368.44;5035152;28;1910;-96
2022/04/25 13:57:47;;;;;;;;;;;;;;;10.43;59.83;100368.00;5036905;28;937;-96
2022/04/25 14:00:19;;;;;;;;;;;;;;;10.45;59.75;100360.53;5034586;28;976;-96